Saga Sapphire — 9HOF8 — position and weather

sailwx.info

Track history (hours):
 
Tides and Currents Weather Stations Pressure Air Temp Water Temp Dewpoint Dewpoint Depression Visibility Wind Speed Wind Dir Waves Ship Positions

Saga Sapphire

Last reported at 2015-Apr-20 22:13 UTC. Time now 2015-Apr-21 08:14 UTC.
Position N 39°50' E 023°56'.

Length 200 m; draft 8.6 m.

Type: Passenger vessel. MMSI: 256208000.

Date/timePositionNaut miles runAvg speedWind from/ knotsBaromVisibWave heightAir tempDewpointWater temp
2015-Apr-20 22:13N 39°50' E 023°56'1116.1
2015-Apr-20 21:34N 39°49' E 024°10'3415.3
2015-Apr-20 19:21N 39°44' E 024°54'  
2015-Apr-18 14:33N 37°31' E 025°18'4 3.6
2015-Apr-18 13:33N 37°28' E 025°19'0 0.0
2015-Apr-18 12:27N 37°28' E 025°19'0 0.0
2015-Apr-18 11:33N 37°28' E 025°19'0 0.0
2015-Apr-18 10:33N 37°28' E 025°19'0 0.0
2015-Apr-18 09:33N 37°28' E 025°19'0 0.0
2015-Apr-18 08:27N 37°28' E 025°19'0 0.0
2015-Apr-18 07:33N 37°28' E 025°19'0 0.0
2015-Apr-18 06:33N 37°28' E 025°19'0 0.0
2015-Apr-18 05:33N 37°28' E 025°19'0 0.0
2015-Apr-18 04:30N 37°28' E 025°19'5 5.0
2015-Apr-18 03:33N 37°28' E 025°13'1312.8
2015-Apr-18 02:33N 37°21' E 024°60'58 9.6
2015-Apr-17 20:31N 37°19' E 023°47'1313.0
2015-Apr-17 19:33N 37°32' E 023°45'1312.8
2015-Apr-17 18:33N 37°44' E 023°40'1212.0
2015-Apr-17 17:33N 37°56' E 023°37'1 1.4
2015-Apr-17 16:33N 37°56' E 023°38'0 0.0
2015-Apr-17 15:33N 37°56' E 023°38'0 0.0
2015-Apr-17 14:33N 37°56' E 023°38'0 0.0
2015-Apr-17 13:33N 37°56' E 023°38'0 0.0
2015-Apr-17 12:33N 37°56' E 023°38'0 0.0
2015-Apr-17 11:33N 37°56' E 023°38'0 0.0
2015-Apr-17 10:33N 37°56' E 023°38'0 0.0
2015-Apr-17 09:33N 37°56' E 023°38'0 0.0
2015-Apr-17 08:33N 37°56' E 023°38'0 0.0
2015-Apr-17 07:33N 37°56' E 023°38'0 0.0
2015-Apr-17 06:27N 37°56' E 023°38'0 0.0
2015-Apr-17 05:33N 37°56' E 023°38'0 0.0
2015-Apr-17 04:33N 37°56' E 023°38'0 0.0
2015-Apr-17 03:30N 37°56' E 023°38'0 0.0
2015-Apr-17 02:33N 37°56' E 023°38'0 0.0
2015-Apr-17 01:33N 37°56' E 023°38'0 0.0
2015-Apr-17 00:33N 37°56' E 023°38'0 0.0
2015-Apr-16 23:33N 37°56' E 023°38'0 0.0
2015-Apr-16 22:27N 37°56' E 023°38'0 0.0
2015-Apr-16 21:30N 37°56' E 023°38'0 0.0
2015-Apr-16 20:33N 37°56' E 023°38'0 0.0
2015-Apr-16 19:33N 37°56' E 023°38'0 0.0
2015-Apr-16 18:33N 37°56' E 023°38'0 0.0
2015-Apr-16 17:27N 37°56' E 023°38'0 0.0
2015-Apr-16 16:30N 37°56' E 023°38'0 0.0
2015-Apr-16 15:33N 37°56' E 023°38'0 0.0
2015-Apr-16 14:33N 37°56' E 023°38'0 0.0
2015-Apr-16 13:33N 37°56' E 023°38'0 0.0
2015-Apr-16 12:33N 37°56' E 023°38'0 0.0
2015-Apr-16 11:33N 37°56' E 023°38'0 0.0
2015-Apr-16 10:33N 37°56' E 023°38'0 0.0
2015-Apr-16 09:33N 37°56' E 023°38'0 0.0
2015-Apr-16 08:33N 37°56' E 023°38'0 0.0
2015-Apr-16 07:33N 37°56' E 023°38'0 0.0
2015-Apr-16 06:33N 37°56' E 023°38'0 0.0
2015-Apr-16 05:33N 37°56' E 023°38'0 0.0
2015-Apr-16 04:33N 37°56' E 023°38'2 1.8
2015-Apr-16 03:33N 37°55' E 023°36'4 3.6
2015-Apr-16 02:33N 37°52' E 023°38'1212.4
2015-Apr-16 01:33N 37°41' E 023°45'1312.3
2015-Apr-16 00:31N 37°28' E 023°43'41712.2
2015-Apr-14 14:20N 36°26' E 015°07'1114.1
2015-Apr-14 13:33N 36°28' E 014°54'1414.4
2015-Apr-14 12:33N 36°29' E 014°36'1414.2
2015-Apr-14 11:34N 36°35' E 014°20'1414.0
2015-Apr-14 10:33N 36°42' E 014°05'1414.2
2015-Apr-14 09:33N 36°49' E 013°49'1414.5
2015-Apr-14 08:33N 36°55' E 013°33'1414.5
2015-Apr-14 07:33N 37°02' E 013°17'4414.5
2015-Apr-14 04:33N 37°24' E 012°29'1514.8
2015-Apr-14 03:33N 37°32' E 012°14'1414.4
2015-Apr-14 02:33N 37°40' E 011°59'4514.8
2015-Apr-13 23:32N 38°05' E 011°12'10314.7
2015-Apr-13 16:32N 39°02' E 009°22'1313.6
2015-Apr-13 15:33N 39°10' E 009°08'3 3.0
2015-Apr-13 14:31N 39°13' E 009°06'0 0.0
2015-Apr-13 13:31N 39°13' E 009°06'0 0.0
2015-Apr-13 12:25N 39°13' E 009°06'0 0.0
2015-Apr-13 11:31N 39°13' E 009°06'0 0.0
2015-Apr-13 10:31N 39°13' E 009°06'0 0.0
2015-Apr-13 09:25N 39°13' E 009°06'0 0.0
2015-Apr-13 08:28N 39°13' E 009°06'0 0.0
2015-Apr-13 07:28N 39°13' E 009°06'0 0.0
2015-Apr-13 06:25N 39°13' E 009°06'0 0.0
2015-Apr-13 05:29N 39°13' E 009°06'6 5.9
2015-Apr-13 04:33N 39°07' E 009°08'1010.6
2015-Apr-13 03:34N 38°57' E 009°07'77 7.6
2015-Apr-12 17:28N 38°52' E 007°29'6410.3
2015-Apr-12 11:17N 38°56' E 006°07'3110.7
2015-Apr-12 08:24N 38°58' E 005°28'2210.6
2015-Apr-12 06:18N 38°59' E 004°59'24 8.5
2015-Apr-12 03:29N 39°01' E 004°28'16 8.4
2015-Apr-12 01:33N 39°02' E 004°07'9 8.7
2015-Apr-12 00:32N 39°03' E 003°56'9 8.6
2015-Apr-11 23:32N 39°03' E 003°45'8 8.4
2015-Apr-11 22:33N 39°03' E 003°34'8 8.0
2015-Apr-11 21:33N 39°03' E 003°24'8 8.2
2015-Apr-11 20:33N 39°04' E 003°13'8 8.2
2015-Apr-11 19:33N 39°05' E 003°03'8 7.9
2015-Apr-11 18:33N 39°06' E 002°53'9 8.6
2015-Apr-11 17:34N 39°13' E 002°47'9 8.9
2015-Apr-11 16:33N 39°21' E 002°41'9 9.1
2015-Apr-11 15:33N 39°30' E 002°39'4 3.6
2015-Apr-11 14:33N 39°33' E 002°38'0 0.0
2015-Apr-11 13:33N 39°33' E 002°38'0 0.0
2015-Apr-11 12:33N 39°33' E 002°38'0 0.0
2015-Apr-11 11:33N 39°33' E 002°38'0 0.0
2015-Apr-11 10:34N 39°33' E 002°38'0 0.0
2015-Apr-11 09:34N 39°33' E 002°38'0 0.0
2015-Apr-11 08:33N 39°33' E 002°38'0 0.0
2015-Apr-11 07:33N 39°33' E 002°38'0 0.0
2015-Apr-11 06:33N 39°33' E 002°38'0 0.0
2015-Apr-11 05:33N 39°33' E 002°38'6 6.0
2015-Apr-11 04:33N 39°28' E 002°35'1313.5
2015-Apr-11 03:33N 39°18' E 002°24'1414.3
2015-Apr-11 02:33N 39°07' E 002°11'1615.6
2015-Apr-11 01:33N 38°55' E 001°58'1616.0
2015-Apr-11 00:33N 38°43' E 001°44'1615.5
2015-Apr-10 23:33N 38°33' E 001°29'  
Track history (hours):
 
Tides and Currents Weather Stations Pressure Air Temp Water Temp Dewpoint Dewpoint Depression Visibility Wind Speed Wind Dir Waves Ship Positions

Saga Sapphire

Last reported at 2015-Apr-20 22:13 UTC. Time now 2015-Apr-21 08:14 UTC.
Position N 39°50' E 023°56'.

Length 200 m; draft 8.6 m.

Type: Passenger vessel. MMSI: 256208000.

Date/timePositionNaut miles runAvg speedWind from/ knotsBaromVisibWave heightAir tempDewpointWater temp
2015-Apr-20 22:13N 39°50' E 023°56'1116.1
2015-Apr-20 21:34N 39°49' E 024°10'3415.3
2015-Apr-20 19:21N 39°44' E 024°54'  
2015-Apr-18 14:33N 37°31' E 025°18'4 3.6
2015-Apr-18 13:33N 37°28' E 025°19'0 0.0
2015-Apr-18 12:27N 37°28' E 025°19'0 0.0
2015-Apr-18 11:33N 37°28' E 025°19'0 0.0
2015-Apr-18 10:33N 37°28' E 025°19'0 0.0
2015-Apr-18 09:33N 37°28' E 025°19'0 0.0
2015-Apr-18 08:27N 37°28' E 025°19'0 0.0
2015-Apr-18 07:33N 37°28' E 025°19'0 0.0
2015-Apr-18 06:33N 37°28' E 025°19'0 0.0
2015-Apr-18 05:33N 37°28' E 025°19'0 0.0
2015-Apr-18 04:30N 37°28' E 025°19'5 5.0
2015-Apr-18 03:33N 37°28' E 025°13'1312.8
2015-Apr-18 02:33N 37°21' E 024°60'58 9.6
2015-Apr-17 20:31N 37°19' E 023°47'1313.0
2015-Apr-17 19:33N 37°32' E 023°45'1312.8
2015-Apr-17 18:33N 37°44' E 023°40'1212.0
2015-Apr-17 17:33N 37°56' E 023°37'1 1.4
2015-Apr-17 16:33N 37°56' E 023°38'0 0.0
2015-Apr-17 15:33N 37°56' E 023°38'0 0.0
2015-Apr-17 14:33N 37°56' E 023°38'0 0.0
2015-Apr-17 13:33N 37°56' E 023°38'0 0.0
2015-Apr-17 12:33N 37°56' E 023°38'0 0.0
2015-Apr-17 11:33N 37°56' E 023°38'0 0.0
2015-Apr-17 10:33N 37°56' E 023°38'0 0.0
2015-Apr-17 09:33N 37°56' E 023°38'0 0.0
2015-Apr-17 08:33N 37°56' E 023°38'0 0.0
2015-Apr-17 07:33N 37°56' E 023°38'0 0.0
2015-Apr-17 06:27N 37°56' E 023°38'0 0.0
2015-Apr-17 05:33N 37°56' E 023°38'0 0.0
2015-Apr-17 04:33N 37°56' E 023°38'0 0.0
2015-Apr-17 03:30N 37°56' E 023°38'0 0.0
2015-Apr-17 02:33N 37°56' E 023°38'0 0.0
2015-Apr-17 01:33N 37°56' E 023°38'0 0.0
2015-Apr-17 00:33N 37°56' E 023°38'0 0.0
2015-Apr-16 23:33N 37°56' E 023°38'0 0.0
2015-Apr-16 22:27N 37°56' E 023°38'0 0.0
2015-Apr-16 21:30N 37°56' E 023°38'0 0.0
2015-Apr-16 20:33N 37°56' E 023°38'0 0.0
2015-Apr-16 19:33N 37°56' E 023°38'0 0.0
2015-Apr-16 18:33N 37°56' E 023°38'0 0.0
2015-Apr-16 17:27N 37°56' E 023°38'0 0.0
2015-Apr-16 16:30N 37°56' E 023°38'0 0.0
2015-Apr-16 15:33N 37°56' E 023°38'0 0.0
2015-Apr-16 14:33N 37°56' E 023°38'0 0.0
2015-Apr-16 13:33N 37°56' E 023°38'0 0.0
2015-Apr-16 12:33N 37°56' E 023°38'0 0.0
2015-Apr-16 11:33N 37°56' E 023°38'0 0.0
2015-Apr-16 10:33N 37°56' E 023°38'0 0.0
2015-Apr-16 09:33N 37°56' E 023°38'0 0.0
2015-Apr-16 08:33N 37°56' E 023°38'0 0.0
2015-Apr-16 07:33N 37°56' E 023°38'0 0.0
2015-Apr-16 06:33N 37°56' E 023°38'0 0.0
2015-Apr-16 05:33N 37°56' E 023°38'0 0.0
2015-Apr-16 04:33N 37°56' E 023°38'2 1.8
2015-Apr-16 03:33N 37°55' E 023°36'4 3.6
2015-Apr-16 02:33N 37°52' E 023°38'1212.4
2015-Apr-16 01:33N 37°41' E 023°45'1312.3
2015-Apr-16 00:31N 37°28' E 023°43'41712.2
2015-Apr-14 14:20N 36°26' E 015°07'1114.1
2015-Apr-14 13:33N 36°28' E 014°54'1414.4
2015-Apr-14 12:33N 36°29' E 014°36'1414.2
2015-Apr-14 11:34N 36°35' E 014°20'1414.0
2015-Apr-14 10:33N 36°42' E 014°05'1414.2
2015-Apr-14 09:33N 36°49' E 013°49'1414.5
2015-Apr-14 08:33N 36°55' E 013°33'1414.5
2015-Apr-14 07:33N 37°02' E 013°17'4414.5
2015-Apr-14 04:33N 37°24' E 012°29'1514.8
2015-Apr-14 03:33N 37°32' E 012°14'1414.4
2015-Apr-14 02:33N 37°40' E 011°59'4514.8
2015-Apr-13 23:32N 38°05' E 011°12'10314.7
2015-Apr-13 16:32N 39°02' E 009°22'1313.6
2015-Apr-13 15:33N 39°10' E 009°08'3 3.0
2015-Apr-13 14:31N 39°13' E 009°06'0 0.0
2015-Apr-13 13:31N 39°13' E 009°06'0 0.0
2015-Apr-13 12:25N 39°13' E 009°06'0 0.0
2015-Apr-13 11:31N 39°13' E 009°06'0 0.0
2015-Apr-13 10:31N 39°13' E 009°06'0 0.0
2015-Apr-13 09:25N 39°13' E 009°06'0 0.0
2015-Apr-13 08:28N 39°13' E 009°06'0 0.0
2015-Apr-13 07:28N 39°13' E 009°06'0 0.0
2015-Apr-13 06:25N 39°13' E 009°06'0 0.0
2015-Apr-13 05:29N 39°13' E 009°06'6 5.9
2015-Apr-13 04:33N 39°07' E 009°08'1010.6
2015-Apr-13 03:34N 38°57' E 009°07'77 7.6
2015-Apr-12 17:28N 38°52' E 007°29'6410.3
2015-Apr-12 11:17N 38°56' E 006°07'3110.7
2015-Apr-12 08:24N 38°58' E 005°28'2210.6
2015-Apr-12 06:18N 38°59' E 004°59'24 8.5
2015-Apr-12 03:29N 39°01' E 004°28'16 8.4
2015-Apr-12 01:33N 39°02' E 004°07'9 8.7
2015-Apr-12 00:32N 39°03' E 003°56'9 8.6
2015-Apr-11 23:32N 39°03' E 003°45'8 8.4
2015-Apr-11 22:33N 39°03' E 003°34'8 8.0
2015-Apr-11 21:33N 39°03' E 003°24'8 8.2
2015-Apr-11 20:33N 39°04' E 003°13'8 8.2
2015-Apr-11 19:33N 39°05' E 003°03'8 7.9
2015-Apr-11 18:33N 39°06' E 002°53'9 8.6
2015-Apr-11 17:34N 39°13' E 002°47'9 8.9
2015-Apr-11 16:33N 39°21' E 002°41'9 9.1
2015-Apr-11 15:33N 39°30' E 002°39'4 3.6
2015-Apr-11 14:33N 39°33' E 002°38'0 0.0
2015-Apr-11 13:33N 39°33' E 002°38'0 0.0
2015-Apr-11 12:33N 39°33' E 002°38'0 0.0
2015-Apr-11 11:33N 39°33' E 002°38'0 0.0
2015-Apr-11 10:34N 39°33' E 002°38'0 0.0
2015-Apr-11 09:34N 39°33' E 002°38'0 0.0
2015-Apr-11 08:33N 39°33' E 002°38'0 0.0
2015-Apr-11 07:33N 39°33' E 002°38'0 0.0
2015-Apr-11 06:33N 39°33' E 002°38'0 0.0
2015-Apr-11 05:33N 39°33' E 002°38'6 6.0
2015-Apr-11 04:33N 39°28' E 002°35'1313.5
2015-Apr-11 03:33N 39°18' E 002°24'1414.3
2015-Apr-11 02:33N 39°07' E 002°11'1615.6
2015-Apr-11 01:33N 38°55' E 001°58'1616.0
2015-Apr-11 00:33N 38°43' E 001°44'1615.5
2015-Apr-10 23:33N 38°33' E 001°29'  

Dump ship's entire track history